CYIO

Details ICAO CYIO (YIO)
Name POND INLET
Region Canada
Timezone America/Iqaluit (UTC-5.0)
Plans Departing 9
Arriving 10
Stats Elevation 181 ft / 55 m (AMSL)
Location 72.683334° -77.966664°
Runways 1
Magnetic Variation 36.779° W
Sunrise Unknown / Unknown
Sunset Unknown / Unknown
Advertisement - Login to hide

Runways

ID Width Length Bearing (true) Bearing (mag) Surface Threshold Offset Overrun Length
02T 100 ft / 30 m 3,986 ft / 1,215 m 22.99° 59.77° Gravel 0 ft / 0 m 0 ft / 0 m
20T 100 ft / 30 m 3,986 ft / 1,215 m 203.00° 239.78° Gravel 0 ft / 0 m 0 ft / 0 m

Map

Weather


0- 5 10 15 20 25 30 35+ Temperature / ° C

Clouds and Precipitation
Forecast for 2017-12-14 06:00 UTC. Updated an hour ago

Ground ~20,000 ft ~40,000 ft Winds

METAR

CYIO 140600Z AUTO 14008KT 9SM CLR M21/M25 A3007 RMK SLP194

TAF

TAF CYIO 140038Z 1401/1413 19005KT P6SM SCT080 RMK FCST BASED ON AUTO OBS. NXT FCST BY 140700Z

Frequencies

Recorded 128.30 MHz AWOS
Warning: Do not use this data for real-world aviation or navigation. No guarantee of current accuracy is given.